地図

経路データ

SID SEASON NUMBER BASIN SUBBASIN NAME ISO_TIME NATURE LAT LON WMO_WIND WMO_PRES WMO_AGENCY TRACK_TYPE DIST2LAND LANDFALL IFLAG USA_AGENCY USA_ATCF_ID USA_LAT USA_LON USA_RECORD USA_STATUS USA_WIND USA_PRES USA_SSHS USA_R34_NE USA_R34_SE USA_R34_SW USA_R34_NW USA_R50_NE USA_R50_SE USA_R50_SW USA_R50_NW USA_R64_NE USA_R64_SE USA_R64_SW USA_R64_NW USA_POCI USA_ROCI USA_RMW USA_EYE TOKYO_LAT TOKYO_LON TOKYO_GRADE TOKYO_WIND TOKYO_PRES TOKYO_R50_DIR TOKYO_R50_LONG TOKYO_R50_SHORT TOKYO_R30_DIR TOKYO_R30_LONG TOKYO_R30_SHORT TOKYO_LAND CMA_LAT CMA_LON CMA_CAT CMA_WIND CMA_PRES HKO_LAT HKO_LON HKO_CAT HKO_WIND HKO_PRES NEWDELHI_LAT NEWDELHI_LON NEWDELHI_GRADE NEWDELHI_WIND NEWDELHI_PRES NEWDELHI_CI NEWDELHI_DP NEWDELHI_POCI REUNION_LAT REUNION_LON REUNION_TYPE REUNION_WIND REUNION_PRES REUNION_TNUM REUNION_CI REUNION_RMW REUNION_R34_NE REUNION_R34_SE REUNION_R34_SW REUNION_R34_NW REUNION_R50_NE REUNION_R50_SE REUNION_R50_SW REUNION_R50_NW REUNION_R64_NE REUNION_R64_SE REUNION_R64_SW REUNION_R64_NW BOM_LAT BOM_LON BOM_TYPE BOM_WIND BOM_PRES BOM_TNUM BOM_CI BOM_RMW BOM_R34_NE BOM_R34_SE BOM_R34_SW BOM_R34_NW BOM_R50_NE BOM_R50_SE BOM_R50_SW BOM_R50_NW BOM_R64_NE BOM_R64_SE BOM_R64_SW BOM_R64_NW BOM_ROCI BOM_POCI BOM_EYE BOM_POS_METHOD BOM_PRES_METHOD NADI_LAT NADI_LON NADI_CAT NADI_WIND NADI_PRES WELLINGTON_LAT WELLINGTON_LON WELLINGTON_WIND WELLINGTON_PRES DS824_LAT DS824_LON DS824_STAGE DS824_WIND DS824_PRES TD9636_LAT TD9636_LON TD9636_STAGE TD9636_WIND TD9636_PRES TD9635_LAT TD9635_LON TD9635_WIND TD9635_PRES TD9635_ROCI NEUMANN_LAT NEUMANN_LON NEUMANN_CLASS NEUMANN_WIND NEUMANN_PRES MLC_LAT MLC_LON MLC_CLASS MLC_WIND MLC_PRES USA_GUST BOM_GUST BOM_GUST_PER REUNION_GUST REUNION_GUST_PER USA_SEAHGT USA_SEARAD_NE USA_SEARAD_SE USA_SEARAD_SW USA_SEARAD_NW STORM_SPEED STORM_DIR
1949005S13043 1949 1 SI MM NOT_NAMED 1949-01-05 06:00:00 NR -12.8000 42.9000 reunion main 249 249 _____O________ -1 -12.8000 42.9000 99 9.90000 1 166
1949005S13043 1949 1 SI MM NOT_NAMED 1949-01-05 09:00:00 NR -12.8542 42.9213 main 249 249 _____P________ -1 -12.8542 42.9213 99 2 192
1949005S13043 1949 1 SI MM NOT_NAMED 1949-01-05 12:00:00 TS -12.9546 42.8709 main 250 250 O____P___OO___ jtwc_sh SH071949 -13.0000 42.8000 -1 -12.9092 42.9418 99 -13.0000 42.8000 TC -13.0000 42.8000 1 2 0
1949005S13043 1949 1 SI MM NOT_NAMED 1949-01-05 15:00:00 TS -13.0143 42.8945 main 250 250 P____P___PP___ SH071949 -13.0325 42.8600 -1 -12.9657 42.9606 99 -13.0325 42.8600 TC -13.0750 42.8312 1 1 163
1949005S13043 1949 1 SI MM NOT_NAMED 1949-01-05 18:00:00 TS -13.0907 42.9144 main 251 250 O____P___OP___ jtwc_sh SH071949 -13.1000 42.9000 -1 -13.0247 42.9769 99 -13.1000 42.9000 TC -13.1600 42.8600 1 2 0
1949005S13043 1949 1 SI MM NOT_NAMED 1949-01-05 21:00:00 TS -13.2017 42.9221 main 250 249 P____P___PP___ SH071949 -13.2275 42.9075 -1 -13.0868 42.9898 99 -13.2275 42.9075 TC -13.2650 42.8837 1 2 0
1949005S13043 1949 1 SI MM NOT_NAMED 1949-01-06 00:00:00 TS -13.3382 42.9246 main 249 248 O____P___OO___ jtwc_sh SH071949 -13.4000 42.9000 -1 -13.1529 42.9985 99 -13.4000 42.9000 TC 25 -13.4000 42.9000 1 3 178
1949005S13043 1949 1 SI MM NOT_NAMED 1949-01-06 03:00:00 TS -13.4950 42.9274 main 249 243 P____P___PP___ SH071949 -13.5925 42.9000 -1 -13.2237 43.0022 99 -13.5925 42.9000 TC 25 -13.5713 42.9072 1 3 0
1949005S13043 1949 1 SI MM NOT_NAMED 1949-01-06 06:00:00 TS -13.6675 42.9269 reunion main 243 239 O____O___OP___ jtwc_sh SH071949 -13.8000 42.9000 -1 -13.3000 43.0000 99 9.90000 -13.8000 42.9000 TC 25 -13.7700 42.9075 1 3 182
1949005S13043 1949 1 SI MM NOT_NAMED 1949-01-06 09:00:00 TS -13.8419 42.9240 main 239 233 P____P___PP___ SH071949 -14.0000 42.9000 -1 -13.3840 42.9917 99 -14.0000 42.9000 TC 25 -13.9838 42.9041 1 4 183
1949005S13043 1949 1 SI MM NOT_NAMED 1949-01-06 12:00:00 TS -14.0208 42.9199 main 233 228 O____P___OO___ jtwc_sh SH071949 -14.2000 42.9000 -1 -13.4832 42.9797 99 -14.2000 42.9000 TC 25 -14.2000 42.9000 1 3 0
1949005S13043 1949 1 SI MM NOT_NAMED 1949-01-06 15:00:00 TS -14.1834 42.9138 main 228 227 P____P___PP___ SH071949 -14.4000 42.9000 -1 -13.6067 42.9670 99 -14.4000 42.9000 TC 25 -14.3269 42.8880 1 3 0
1949005S13043 1949 1 SI MM NOT_NAMED 1949-01-06 18:00:00 TS -14.3571 42.9086 main 226 226 O____P___OP___ jtwc_sh SH071949 -14.6000 42.9000 -1 -13.7632 42.9567 99 -14.6000 42.9000 TC 25 -14.4651 42.8779 1 4 184
1949005S13043 1949 1 SI MM NOT_NAMED 1949-01-06 21:00:00 TS -14.5319 42.9039 main 226 225 P____P___PP___ SH071949 -14.7475 42.8926 -1 -13.9618 42.9518 99 -14.7475 42.8926 TC 25 -14.6707 42.8788 1 4 179
1949005S13043 1949 1 SI MM NOT_NAMED 1949-01-07 00:00:00 TS -14.8029 42.9138 main 225 202 O____P___OO___ jtwc_sh SH071949 -15.0000 42.9000 -1 -14.2115 42.9553 99 -15.0000 42.9000 TC 25 -15.0000 42.9000 1 7 177
1949005S13043 1949 1 SI MM NOT_NAMED 1949-01-07 03:00:00 TS -15.2473 42.9474 main 202 159 P____P___PP___ SH071949 -15.4675 42.9351 -1 -14.5212 42.9703 99 -15.4675 42.9351 TC 25 -15.5329 42.9492 1 10 175
1949005S13043 1949 1 SI MM NOT_NAMED 1949-01-07 06:00:00 TS -15.8219 43.0050 reunion main 159 132 O____O___OP___ jtwc_sh SH071949 -16.1000 43.0000 -1 -14.9000 43.0000 99 9.90000 -16.1000 43.0000 TC 25 -16.1877 43.0198 1 13 174
1949005S13043 1949 1 SI MM NOT_NAMED 1949-01-07 09:00:00 TS -16.4994 43.0771 main 132 81 P____P___PP___ SH071949 -16.8500 43.0998 -1 -15.3988 43.0032 99 -16.8500 43.0998 TC 25 -16.8986 43.1055 1 14 174
1949005S13043 1949 1 SI MM NOT_NAMED 1949-01-07 12:00:00 TS -17.1934 43.1536 main 81 74 O____P___OO___ jtwc_sh SH071949 -17.6000 43.2000 -1 -15.9734 43.0146 99 -17.6000 43.2000 TC 25 -17.6000 43.2000 1 13 175
1949005S13043 1949 1 SI MM NOT_NAMED 1949-01-07 15:00:00 TS -17.7863 43.1923 main 81 81 P____P___PP___ SH071949 -18.1725 43.2428 -1 -16.6040 43.0420 99 -18.1725 43.2428 TC 25 -18.1961 43.2415 1 12 176
1949005S13043 1949 1 SI MM NOT_NAMED 1949-01-07 18:00:00 TS -18.3606 43.2477 main 84 73 O____P___OP___ jtwc_sh SH071949 -18.7000 43.3000 -1 -17.2705 43.0934 99 -18.7000 43.3000 TC 25 -18.7718 43.2974 1 12 173
1949005S13043 1949 1 SI MM NOT_NAMED 1949-01-07 21:00:00 TS -18.9724 43.3479 main 94 80 P____P___PP___ SH071949 -19.2999 43.4052 -1 -17.9533 43.1767 99 -19.2999 43.4052 TC 25 -19.3366 43.4044 1 13 168
1949005S13043 1949 1 SI MM NOT_NAMED 1949-01-08 00:00:00 TS -19.5831 43.5250 main 92 54 O____P___OO___ jtwc_sh SH071949 -19.9000 43.6000 -1 -18.6324 43.3001 99 -19.9000 43.6000 TC 25 -19.9000 43.6000 1 13 161
1949005S13043 1949 1 SI MM NOT_NAMED 1949-01-08 03:00:00 TS -20.1789 43.7973 main 45 0 P____P___PP___ SH071949 -20.4499 43.8978 -1 -19.2879 43.4717 99 -20.4499 43.8978 TC 25 -20.5280 43.9217 1 13 153
1949005S13043 1949 1 SI MM NOT_NAMED 1949-01-08 06:00:00 TS -20.7620 44.1588 reunion main 0 0 O____O___OP___ jtwc_sh SH071949 -21.0000 44.3000 -1 -19.9000 43.7000 99 9.90000 -21.0000 44.3000 TC 25 -21.1478 44.3351 1 14 147
1949005S13043 1949 1 SI MM NOT_NAMED 1949-01-08 09:00:00 TS -21.3583 44.6021 main 0 0 P____P___PP___ SH071949 -21.6301 44.7846 -1 -20.4543 44.0332 99 -21.6301 44.7846 TC 25 -21.7186 44.8062 1 14 143
1949005S13043 1949 1 SI MM NOT_NAMED 1949-01-08 12:00:00 TS -21.8951 45.0825 main 0 0 O____P___OO___ jtwc_sh SH071949 -22.2000 45.3000 -1 -20.9804 44.4298 99 -22.2000 45.3000 TC 25 -22.2000 45.3000 1 13 138
1949005S13043 1949 1 SI MM NOT_NAMED 1949-01-08 15:00:00 TS -22.3176 45.5403 main 0 0 P____P___PP___ SH071949 -22.6172 45.7504 -1 -21.4718 44.8736 99 -22.6172 45.7504 TC 25 -22.5639 45.7870 1 11 131
1949005S13043 1949 1 SI MM NOT_NAMED 1949-01-08 18:00:00 TS -22.5832 45.9524 main 0 0 O____P___OP___ jtwc_sh SH071949 -22.9000 46.2000 -1 -21.9226 45.3476 99 -22.9000 46.2000 TC 25 -22.8306 46.2636 1 9 121
1949005S13043 1949 1 SI MM NOT_NAMED 1949-01-08 21:00:00 TS -22.7682 46.3556 main 0 0 P____P___PP___ SH071949 -23.0779 46.6873 -1 -22.3266 45.8349 99 -23.0779 46.6873 TC 25 -23.0319 46.7334 1 8 115
1949005S13043 1949 1 SI MM NOT_NAMED 1949-01-09 00:00:00 TS -22.9016 46.6960 main 0 0 O____P___OO___ jtwc_sh SH071949 -23.2000 47.2000 -1 -22.6779 46.3180 99 -23.2000 47.2000 TC 25 -23.2000 47.2000 1 4 118
1949005S13043 1949 1 SI MM NOT_NAMED 1949-01-09 03:00:00 NR -22.9708 46.7790 main 0 0 _____P________ SH071949 -1 -22.9708 46.7790 99 TC 1 6 123
1949005S13043 1949 1 SI MM NOT_NAMED 1949-01-09 06:00:00 NR -23.2000 47.2000 reunion main 0 0 _____O________ -1 -23.2000 47.2000 99 9.90000 1 8 118
1949005S13043 1949 1 SI MM NOT_NAMED 1949-01-09 09:00:00 NR -23.3624 47.5671 main 0 0 _____P________ -1 -23.3624 47.5671 99 1 7 113
1949005S13043 1949 1 SI MM NOT_NAMED 1949-01-09 12:00:00 NR -23.4646 47.8828 main 23 23 _____P________ -1 -23.4646 47.8828 99 6 106
1949005S13043 1949 1 SI MM NOT_NAMED 1949-01-09 15:00:00 NR -23.5154 48.1543 main 52 52 _____P________ -1 -23.5154 48.1543 99 5 97
1949005S13043 1949 1 SI MM NOT_NAMED 1949-01-09 18:00:00 NR -23.5235 48.3885 main 72 72 _____P________ -1 -23.5235 48.3885 99 4 87
1949005S13043 1949 1 SI MM NOT_NAMED 1949-01-09 21:00:00 NR -23.4975 48.5927 main 92 92 _____P________ -1 -23.4975 48.5927 99 4 78
1949005S13043 1949 1 SI MM NOT_NAMED 1949-01-10 00:00:00 NR -23.4459 48.7745 main 112 112 _____P________ -1 -23.4459 48.7745 99 3 69
1949005S13043 1949 1 SI MM NOT_NAMED 1949-01-10 03:00:00 NR -23.3773 48.9411 main 122 122 _____P________ -1 -23.3773 48.9411 99 3 64
1949005S13043 1949 1 SI MM NOT_NAMED 1949-01-10 06:00:00 NR -23.3000 49.1000 reunion main 140 _____O________ -1 -23.3000 49.1000 99 9.90000 3 63

IBTrACS Databaseについて

本データベースは、米国NOAAが公開する1842年以降の世界の熱帯低気圧のベストトラックデータアーカイブInternational Best Track Archive for Climate Stewardship (IBTrACS)を、ウェブで閲覧しやすい形式に変換したものです。

最終更新日:2021-10-08